Ocean Taiga — 3EHZ6 — position and weather

sailwx.info

Track history (hours):
 
Tides and Currents Weather Stations Pressure Air Temp Water Temp Dewpoint Dewpoint Depression Visibility Wind Speed Wind Dir Waves Ship Positions

Ocean Taiga

Last reported at 2017-Oct-31 13:10 UTC. Time now 2017-Nov-21 11:57 UTC.
Position N 34°10' E 134°57'.
Warning: this ship's position is 20 days out of date.

Length 120 m; draft 8.9 m.

Type: Cargo ship. MMSI: 372041000.

Date/timePositionNaut miles runAvg speedWind from/ knotsBaromVisibWave heightAir tempDewpointWater temp
2017-Oct-31 13:10N 34°10' E 134°57'310.0
2017-Oct-31 12:53N 34°13' E 134°58'8 9.5
2017-Oct-31 12:05N 34°20' E 134°60'1 9.3
2017-Oct-31 12:00N 34°21' E 134°60'5 9.4
2017-Oct-31 11:30N 34°25' E 135°03'5 9.0
2017-Oct-31 11:00N 34°28' E 135°07'4 8.8
2017-Oct-31 10:30N 34°31' E 135°12'4 8.8
2017-Oct-31 10:00N 34°34' E 135°15'5 9.2
2017-Oct-31 09:30N 34°38' E 135°18'4 7.5
2017-Oct-31 09:00N 34°41' E 135°17'0 0.5
2017-Oct-31 08:28N 34°42' E 135°17'0 0.0
2017-Oct-31 07:58N 34°42' E 135°17'0 0.0
2017-Oct-31 07:22N 34°42' E 135°17'0 0.0
2017-Oct-31 06:58N 34°42' E 135°17'0 0.0
2017-Oct-31 06:28N 34°42' E 135°17'0 0.0
2017-Oct-31 05:58N 34°42' E 135°17'0 0.0
2017-Oct-31 05:28N 34°42' E 135°17'0 0.0
2017-Oct-31 04:58N 34°42' E 135°17'0 0.0
2017-Oct-31 04:28N 34°42' E 135°17'0 0.0
2017-Oct-31 03:58N 34°42' E 135°17'0 0.0
2017-Oct-31 03:16N 34°42' E 135°17'0 0.0
2017-Oct-31 02:52N 34°42' E 135°17'0 0.0
2017-Oct-31 02:22N 34°42' E 135°17'0 0.0
2017-Oct-31 01:58N 34°42' E 135°17'0 0.0
2017-Oct-31 01:22N 34°42' E 135°17'0 0.0
2017-Oct-31 00:58N 34°42' E 135°17'0 1.0
2017-Oct-31 00:29N 34°41' E 135°17'4 8.1
2017-Oct-31 00:00N 34°37' E 135°18'611.7
2017-Oct-30 23:30N 34°32' E 135°14'612.0
2017-Oct-30 23:00N 34°28' E 135°09'611.9
2017-Oct-30 22:30N 34°23' E 135°05'712.2
2017-Oct-30 21:58N 34°18' E 134°60'512.0
2017-Oct-30 21:30N 34°13' E 134°59'611.9
2017-Oct-30 21:00N 34°07' E 134°59'611.8
2017-Oct-30 20:30N 34°01' E 134°60'611.9
2017-Oct-30 20:00N 33°55' E 134°59'  
2017-Oct-28 01:12N 34°53' E 139°19'1110.9
2017-Oct-28 00:11N 34°59' E 139°30'211.6
2017-Oct-27 23:59N 35°01' E 139°32'612.4
2017-Oct-27 23:29N 35°04' E 139°39'612.4
2017-Oct-27 23:00N 35°08' E 139°44'612.0
2017-Oct-27 22:30N 35°14' E 139°46'611.5
2017-Oct-27 22:00N 35°19' E 139°43'510.6
2017-Oct-27 21:30N 35°24' E 139°43'4 7.9
2017-Oct-27 21:00N 35°28' E 139°42'0 0.2
2017-Oct-27 20:28N 35°28' E 139°43'0 0.0
2017-Oct-27 19:58N 35°28' E 139°43'0 0.0
2017-Oct-27 19:28N 35°28' E 139°43'0 0.0
2017-Oct-27 18:58N 35°28' E 139°43'0 0.0
2017-Oct-27 18:28N 35°28' E 139°43'0 0.0
2017-Oct-27 17:58N 35°28' E 139°43'0 0.0
2017-Oct-27 17:28N 35°28' E 139°43'0 0.0
2017-Oct-27 16:58N 35°28' E 139°43'0 0.0
2017-Oct-27 16:28N 35°28' E 139°43'0 0.0
2017-Oct-27 15:49N 35°28' E 139°43'0 0.0
2017-Oct-27 15:28N 35°28' E 139°43'0 0.0
2017-Oct-27 14:58N 35°28' E 139°43'0 0.0
2017-Oct-27 14:25N 35°28' E 139°43'0 0.0
2017-Oct-27 13:55N 35°28' E 139°43'0 0.0
2017-Oct-27 13:28N 35°28' E 139°43'0 0.0
2017-Oct-27 12:58N 35°28' E 139°43'0 0.0
2017-Oct-27 12:28N 35°28' E 139°43'0 0.0
2017-Oct-27 11:58N 35°28' E 139°43'0 0.0
2017-Oct-27 11:28N 35°28' E 139°43'0 0.0
2017-Oct-27 10:58N 35°28' E 139°43'0 0.0
2017-Oct-27 10:28N 35°28' E 139°43'0 0.0
2017-Oct-27 09:58N 35°28' E 139°43'0 0.0
2017-Oct-27 09:25N 35°28' E 139°43'0 0.0
2017-Oct-27 08:58N 35°28' E 139°43'0 0.0
2017-Oct-27 08:25N 35°28' E 139°43'0 0.0
2017-Oct-27 07:58N 35°28' E 139°43'0 0.0
2017-Oct-27 07:28N 35°28' E 139°43'0 0.0
2017-Oct-27 06:58N 35°28' E 139°43'0 0.0
2017-Oct-27 06:28N 35°28' E 139°43'0 0.0
2017-Oct-27 05:58N 35°28' E 139°43'0 0.0
2017-Oct-27 05:28N 35°28' E 139°43'0 0.0
2017-Oct-27 04:58N 35°28' E 139°43'0 0.0
2017-Oct-27 04:28N 35°28' E 139°43'0 0.0
2017-Oct-27 03:55N 35°28' E 139°43'0 0.0
2017-Oct-27 03:28N 35°28' E 139°43'0 0.0
2017-Oct-27 02:58N 35°28' E 139°43'0 0.0
2017-Oct-27 02:28N 35°28' E 139°43'0 0.0
2017-Oct-27 01:55N 35°28' E 139°43'0 0.0
2017-Oct-27 01:28N 35°28' E 139°43'0 0.0
2017-Oct-27 00:58N 35°28' E 139°43'0 0.0
2017-Oct-27 00:28N 35°28' E 139°43'0 0.0
2017-Oct-26 23:58N 35°28' E 139°43'0 0.0
2017-Oct-26 23:28N 35°28' E 139°43'0 0.0
2017-Oct-26 22:58N 35°28' E 139°43'0 0.0
2017-Oct-26 22:22N 35°28' E 139°43'0 0.0
2017-Oct-26 21:58N 35°28' E 139°43'0 0.0
2017-Oct-26 21:25N 35°28' E 139°43'0 0.0
2017-Oct-26 20:58N 35°28' E 139°43'0 0.0
2017-Oct-26 20:28N 35°28' E 139°43'0 0.0
2017-Oct-26 19:58N 35°28' E 139°43'0 0.0
2017-Oct-26 19:28N 35°28' E 139°43'0 0.0
2017-Oct-26 18:58N 35°28' E 139°43'0 0.0
2017-Oct-26 18:28N 35°28' E 139°43'0 0.0
2017-Oct-26 17:58N 35°28' E 139°43'0 0.0
2017-Oct-26 17:28N 35°28' E 139°43'0 0.0
2017-Oct-26 16:58N 35°28' E 139°43'0 0.0
2017-Oct-26 16:28N 35°28' E 139°43'0 0.0
2017-Oct-26 15:58N 35°28' E 139°43'0 0.0
2017-Oct-26 15:28N 35°28' E 139°43'0 0.0
2017-Oct-26 14:58N 35°28' E 139°43'0 0.0
2017-Oct-26 14:28N 35°28' E 139°43'0 0.0
2017-Oct-26 13:58N 35°28' E 139°43'0 0.0
2017-Oct-26 13:28N 35°28' E 139°43'0 0.0
2017-Oct-26 12:58N 35°28' E 139°43'0 0.0
2017-Oct-26 12:28N 35°28' E 139°43'0 0.0
2017-Oct-26 11:58N 35°28' E 139°43'0 0.0
2017-Oct-26 11:28N 35°28' E 139°43'0 0.0
2017-Oct-26 10:58N 35°28' E 139°43'0 0.0
2017-Oct-26 10:28N 35°28' E 139°43'0 0.0
2017-Oct-26 09:58N 35°28' E 139°43'0 0.0
2017-Oct-26 09:28N 35°28' E 139°43'0 0.0
2017-Oct-26 08:58N 35°28' E 139°43'0 0.0
2017-Oct-26 08:28N 35°28' E 139°43'0 0.0
2017-Oct-26 07:58N 35°28' E 139°43'0 0.0
2017-Oct-26 07:25N 35°28' E 139°43'0 0.0
2017-Oct-26 06:58N 35°28' E 139°43'0 0.0
2017-Oct-26 06:28N 35°28' E 139°43'0 0.0
2017-Oct-26 05:58N 35°28' E 139°43'0 0.0
2017-Oct-26 05:28N 35°28' E 139°43'0 0.0
2017-Oct-26 04:58N 35°28' E 139°43'0 0.0
2017-Oct-26 04:25N 35°28' E 139°43'0 0.0
2017-Oct-26 03:55N 35°28' E 139°43'0 0.0
2017-Oct-26 03:28N 35°28' E 139°43'0 0.0
2017-Oct-26 02:58N 35°28' E 139°43'0 0.0
2017-Oct-26 02:28N 35°28' E 139°43'0 0.0
2017-Oct-26 01:58N 35°28' E 139°43'0 0.0
2017-Oct-26 01:28N 35°28' E 139°43'0 0.0
2017-Oct-26 00:58N 35°28' E 139°43'0 0.0
2017-Oct-26 00:28N 35°28' E 139°43'0 0.0
2017-Oct-25 23:58N 35°28' E 139°43'0 0.0
2017-Oct-25 23:25N 35°28' E 139°43'0 0.0
2017-Oct-25 22:58N 35°28' E 139°43'0 0.0
2017-Oct-25 22:28N 35°28' E 139°43'0 0.0
2017-Oct-25 21:58N 35°28' E 139°43'0 0.0
2017-Oct-25 21:28N 35°28' E 139°43'0 0.0
2017-Oct-25 20:58N 35°28' E 139°43'0 0.0
2017-Oct-25 20:28N 35°28' E 139°43'0 0.0
2017-Oct-25 19:58N 35°28' E 139°43'0 0.0
2017-Oct-25 19:28N 35°28' E 139°43'0 0.0
2017-Oct-25 18:58N 35°28' E 139°43'0 0.0
2017-Oct-25 18:28N 35°28' E 139°43'0 0.0
2017-Oct-25 17:58N 35°28' E 139°43'0 0.0
2017-Oct-25 17:28N 35°28' E 139°43'0 0.0
2017-Oct-25 16:58N 35°28' E 139°43'0 0.0
2017-Oct-25 16:28N 35°28' E 139°43'0 0.0
2017-Oct-25 15:58N 35°28' E 139°43'0 0.0
2017-Oct-25 15:28N 35°28' E 139°43'0 0.0
2017-Oct-25 14:58N 35°28' E 139°43'0 0.0
2017-Oct-25 14:28N 35°28' E 139°43'0 0.0
2017-Oct-25 13:58N 35°28' E 139°43'0 0.0
2017-Oct-25 13:28N 35°28' E 139°43'0 0.0
2017-Oct-25 12:58N 35°28' E 139°43'0 0.0
2017-Oct-25 12:28N 35°28' E 139°43'0 0.0
2017-Oct-25 11:58N 35°28' E 139°43'0 0.0
2017-Oct-25 11:28N 35°28' E 139°43'0 0.0
2017-Oct-25 10:58N 35°28' E 139°43'0 0.0
2017-Oct-25 10:28N 35°28' E 139°43'0 0.0
2017-Oct-25 09:55N 35°28' E 139°43'0 0.0
2017-Oct-25 09:28N 35°28' E 139°43'0 0.0
2017-Oct-25 08:58N 35°28' E 139°43'0 0.0
2017-Oct-25 08:28N 35°28' E 139°43'0 0.0
2017-Oct-25 07:58N 35°28' E 139°43'0 0.0
2017-Oct-25 07:28N 35°28' E 139°43'0 0.0
2017-Oct-25 06:58N 35°28' E 139°43'0 0.0
2017-Oct-25 06:28N 35°28' E 139°43'0 0.0
2017-Oct-25 05:55N 35°28' E 139°43'0 0.0
2017-Oct-25 05:28N 35°28' E 139°43'0 0.0
2017-Oct-25 04:55N 35°28' E 139°43'0 0.0
2017-Oct-25 04:28N 35°28' E 139°43'0 0.0
2017-Oct-25 03:58N 35°28' E 139°43'0 0.0
2017-Oct-25 03:28N 35°28' E 139°43'0 0.0
2017-Oct-25 02:55N 35°28' E 139°43'0 0.0
2017-Oct-25 02:28N 35°28' E 139°43'0 0.0
2017-Oct-25 01:58N 35°28' E 139°43'0 0.0
2017-Oct-25 01:28N 35°28' E 139°43'0 0.0
2017-Oct-25 00:58N 35°28' E 139°43'0 0.0
2017-Oct-25 00:28N 35°28' E 139°43'0 0.0
2017-Oct-24 23:58N 35°28' E 139°43'0 0.0
2017-Oct-24 23:25N 35°28' E 139°43'0 0.0
2017-Oct-24 22:55N 35°28' E 139°43'0 0.0
2017-Oct-24 22:28N 35°28' E 139°43'0 0.0
2017-Oct-24 21:58N 35°28' E 139°43'0 0.0
2017-Oct-24 21:28N 35°28' E 139°43'0 0.0
2017-Oct-24 20:58N 35°28' E 139°43'0 0.0
2017-Oct-24 20:28N 35°28' E 139°43'0 0.0
2017-Oct-24 19:58N 35°28' E 139°43'0 0.0
2017-Oct-24 19:28N 35°28' E 139°43'0 0.0
2017-Oct-24 18:58N 35°28' E 139°43'0 0.0
2017-Oct-24 18:28N 35°28' E 139°43'0 0.0
2017-Oct-24 17:58N 35°28' E 139°43'0 0.0
2017-Oct-24 17:28N 35°28' E 139°43'0 0.0
2017-Oct-24 16:55N 35°28' E 139°43'0 0.0
2017-Oct-24 16:28N 35°28' E 139°43'0 0.0
2017-Oct-24 15:58N 35°28' E 139°43'0 0.0
2017-Oct-24 15:28N 35°28' E 139°43'0 0.0
2017-Oct-24 14:58N 35°28' E 139°43'0 0.0
2017-Oct-24 14:28N 35°28' E 139°43'0 0.0
2017-Oct-24 13:58N 35°28' E 139°43'0 0.0
2017-Oct-24 13:25N 35°28' E 139°43'0 0.0
2017-Oct-24 12:58N 35°28' E 139°43'0 0.0
2017-Oct-24 12:28N 35°28' E 139°43'0 0.0
2017-Oct-24 11:58N 35°28' E 139°43'0 0.0
2017-Oct-24 11:28N 35°28' E 139°43'0 0.0
2017-Oct-24 10:58N 35°28' E 139°43'0 0.0
2017-Oct-24 10:28N 35°28' E 139°43'0 0.0
2017-Oct-24 09:58N 35°28' E 139°43'0 0.0
2017-Oct-24 09:28N 35°28' E 139°43'0 0.0
2017-Oct-24 08:58N 35°28' E 139°43'0 0.0
2017-Oct-24 08:28N 35°28' E 139°43'0 0.0
2017-Oct-24 07:58N 35°28' E 139°43'0 0.0
2017-Oct-24 07:28N 35°28' E 139°43'0 0.0
2017-Oct-24 06:58N 35°28' E 139°43'0 0.0
2017-Oct-24 06:28N 35°28' E 139°43'0 0.0
2017-Oct-24 05:58N 35°28' E 139°43'0 0.0
2017-Oct-24 05:28N 35°28' E 139°43'0 0.0
2017-Oct-24 04:58N 35°28' E 139°43'0 0.0
2017-Oct-24 04:28N 35°28' E 139°43'0 0.0
2017-Oct-24 03:58N 35°28' E 139°43'0 0.0
2017-Oct-24 03:28N 35°28' E 139°43'0 0.0
2017-Oct-24 02:58N 35°28' E 139°43'0 0.0
2017-Oct-24 02:28N 35°28' E 139°43'0 0.0
2017-Oct-24 01:58N 35°28' E 139°43'0 0.0
2017-Oct-24 01:28N 35°28' E 139°43'0 0.0
2017-Oct-24 00:58N 35°28' E 139°43'0 0.0
2017-Oct-24 00:28N 35°28' E 139°43'0 0.0
2017-Oct-23 23:58N 35°28' E 139°43'0 0.0
2017-Oct-23 23:30N 35°28' E 139°43'2 3.0
2017-Oct-23 23:00N 35°27' E 139°44'0 0.2
2017-Oct-23 22:28N 35°27' E 139°44'0 0.0
2017-Oct-23 21:58N 35°27' E 139°44'0 0.0
2017-Oct-23 21:28N 35°27' E 139°44'0 0.1
2017-Oct-23 20:58N 35°27' E 139°44'0 0.0
2017-Oct-23 20:28N 35°27' E 139°44'0 0.0
2017-Oct-23 19:58N 35°27' E 139°44'0 0.1
2017-Oct-23 19:28N 35°27' E 139°44'0 0.0
2017-Oct-23 18:58N 35°27' E 139°44'0 0.0
2017-Oct-23 18:28N 35°27' E 139°44'0 0.0
2017-Oct-23 17:58N 35°27' E 139°44'0 0.0
2017-Oct-23 17:28N 35°27' E 139°44'0 0.0
2017-Oct-23 16:58N 35°27' E 139°44'0 0.0
2017-Oct-23 16:28N 35°27' E 139°44'0 0.1
2017-Oct-23 15:58N 35°27' E 139°44'0 0.0
2017-Oct-23 15:28N 35°27' E 139°44'0 0.0
2017-Oct-23 14:58N 35°27' E 139°44'0 0.0
2017-Oct-23 14:28N 35°27' E 139°44'0 0.1
2017-Oct-23 13:58N 35°27' E 139°44'0 0.0
2017-Oct-23 13:28N 35°27' E 139°44'0 0.0
2017-Oct-23 12:58N 35°27' E 139°44'0 0.0
2017-Oct-23 12:28N 35°27' E 139°44'0 0.0
2017-Oct-23 11:58N 35°27' E 139°44'0 0.2
2017-Oct-23 11:25N 35°27' E 139°44'0 0.0
2017-Oct-23 10:58N 35°27' E 139°44'0 0.1
2017-Oct-23 10:28N 35°27' E 139°44'0 0.0
2017-Oct-23 09:58N 35°27' E 139°44'0 0.0
2017-Oct-23 09:28N 35°27' E 139°44'0 0.0
2017-Oct-23 08:58N 35°27' E 139°44'0 0.0
2017-Oct-23 08:30N 35°27' E 139°44'0 0.0
2017-Oct-23 08:00N 35°27' E 139°44'0 0.0
2017-Oct-23 07:30N 35°27' E 139°44'0 0.0
2017-Oct-23 07:01N 35°27' E 139°44'0 0.0
2017-Oct-23 06:30N 35°27' E 139°44'0 0.1
2017-Oct-23 06:00N 35°27' E 139°44'0 0.1
2017-Oct-23 05:30N 35°27' E 139°44'0 0.0
2017-Oct-23 05:00N 35°27' E 139°44'0 0.0
2017-Oct-23 04:30N 35°27' E 139°44'0 0.0
2017-Oct-23 04:00N 35°27' E 139°44'0 0.0
2017-Oct-23 03:30N 35°27' E 139°44'0 0.1
2017-Oct-23 03:00N 35°27' E 139°44'0 0.0
2017-Oct-23 02:30N 35°27' E 139°44'0 0.0
2017-Oct-23 02:00N 35°27' E 139°44'0 0.1
2017-Oct-23 01:30N 35°27' E 139°44'0 0.0
2017-Oct-23 01:01N 35°27' E 139°44'0 0.0
2017-Oct-23 00:30N 35°27' E 139°44'0 0.1
2017-Oct-23 00:01N 35°27' E 139°44'0 0.1
2017-Oct-22 23:30N 35°27' E 139°44'0 0.1
2017-Oct-22 23:00N 35°27' E 139°44'0 0.2
2017-Oct-22 22:29N 35°27' E 139°44'0 0.1
2017-Oct-22 22:00N 35°27' E 139°44'0 0.1
2017-Oct-22 21:30N 35°27' E 139°44'0 0.2
2017-Oct-22 21:00N 35°27' E 139°44'0 0.2
2017-Oct-22 20:30N 35°27' E 139°44'0 0.2
2017-Oct-22 20:00N 35°27' E 139°44'0 0.3
2017-Oct-22 19:30N 35°27' E 139°44'0 0.1
2017-Oct-22 19:01N 35°27' E 139°44'0 0.0
2017-Oct-22 18:30N 35°27' E 139°44'0 0.1
2017-Oct-22 18:01N 35°27' E 139°44'0 0.1
2017-Oct-22 17:30N 35°27' E 139°44'0 0.0
2017-Oct-22 17:00N 35°27' E 139°44'0 0.0
2017-Oct-22 16:30N 35°27' E 139°44'0 0.2
2017-Oct-22 16:00N 35°27' E 139°44'0 0.1
2017-Oct-22 15:30N 35°27' E 139°44'0 0.0
2017-Oct-22 15:00N 35°27' E 139°44'0 0.0
2017-Oct-22 14:31N 35°27' E 139°44'0 0.1
2017-Oct-22 14:00N 35°27' E 139°44'0 0.0
2017-Oct-22 13:31N 35°27' E 139°44'0 0.0
2017-Oct-22 13:00N 35°27' E 139°44'0 0.0
2017-Oct-22 12:30N 35°27' E 139°44'0 0.0
2017-Oct-22 12:00N 35°27' E 139°44'0 0.0
2017-Oct-22 11:30N 35°27' E 139°44'0 0.1
2017-Oct-22 11:00N 35°27' E 139°44'0 0.1
2017-Oct-22 10:30N 35°27' E 139°44'0 0.1
2017-Oct-22 10:00N 35°27' E 139°44'0 0.0
2017-Oct-22 09:30N 35°27' E 139°44'0 0.1
2017-Oct-22 09:00N 35°27' E 139°44'0 0.0
2017-Oct-22 08:30N 35°27' E 139°44'0 0.2
2017-Oct-22 08:00N 35°27' E 139°44'2 3.1
2017-Oct-22 07:30N 35°26' E 139°43'0 0.3
2017-Oct-22 06:58N 35°26' E 139°43'0 1.0
2017-Oct-22 06:30N 35°26' E 139°43'0 0.3
2017-Oct-22 06:00N 35°26' E 139°43'0 0.2
2017-Oct-22 05:30N 35°26' E 139°43'1 1.8
2017-Oct-22 05:00N 35°27' E 139°43'1 2.7
2017-Oct-22 04:28N 35°28' E 139°43'0 0.0
2017-Oct-22 03:58N 35°28' E 139°43'0 0.0
2017-Oct-22 03:28N 35°28' E 139°43'0 0.0
2017-Oct-22 02:58N 35°28' E 139°43'0 0.0
2017-Oct-22 02:28N 35°28' E 139°43'0 0.0
2017-Oct-22 01:58N 35°28' E 139°43'0 0.0
2017-Oct-22 01:28N 35°28' E 139°43'0 0.0
2017-Oct-22 00:58N 35°28' E 139°43'0 0.0
2017-Oct-22 00:25N 35°28' E 139°43'0 0.0
2017-Oct-21 23:58N 35°28' E 139°43'0 0.0
2017-Oct-21 23:28N 35°28' E 139°43'0 0.0
2017-Oct-21 22:58N 35°28' E 139°43'0 0.0
2017-Oct-21 22:28N 35°28' E 139°43'0 0.0
2017-Oct-21 21:58N 35°28' E 139°43'0 0.0
2017-Oct-21 21:28N 35°28' E 139°43'0 0.0
2017-Oct-21 20:58N 35°28' E 139°43'0 0.0
2017-Oct-21 20:25N 35°28' E 139°43'0 0.0
2017-Oct-21 19:58N 35°28' E 139°43'0 0.0
2017-Oct-21 19:28N 35°28' E 139°43'0 0.0
2017-Oct-21 18:58N 35°28' E 139°43'0 0.0
2017-Oct-21 18:28N 35°28' E 139°43'0 0.0
2017-Oct-21 17:58N 35°28' E 139°43'0 0.0
2017-Oct-21 17:28N 35°28' E 139°43'0 0.0
2017-Oct-21 16:58N 35°28' E 139°43'0 0.0
2017-Oct-21 16:28N 35°28' E 139°43'0 0.0
2017-Oct-21 15:58N 35°28' E 139°43'0 0.0
2017-Oct-21 15:28N 35°28' E 139°43'0 0.0
2017-Oct-21 14:58N 35°28' E 139°43'0 0.0
2017-Oct-21 13:58N 35°28' E 139°43'0 0.0
2017-Oct-21 13:28N 35°28' E 139°43'  
Track history (hours):
 
Tides and Currents Weather Stations Pressure Air Temp Water Temp Dewpoint Dewpoint Depression Visibility Wind Speed Wind Dir Waves Ship Positions

Ocean Taiga

Last reported at 2017-Oct-31 13:10 UTC. Time now 2017-Nov-21 11:57 UTC.
Position N 34°10' E 134°57'.
Warning: this ship's position is 20 days out of date.

Length 120 m; draft 8.9 m.

Type: Cargo ship. MMSI: 372041000.

Date/timePositionNaut miles runAvg speedWind from/ knotsBaromVisibWave heightAir tempDewpointWater temp
2017-Oct-31 13:10N 34°10' E 134°57'310.0
2017-Oct-31 12:53N 34°13' E 134°58'8 9.5
2017-Oct-31 12:05N 34°20' E 134°60'1 9.3
2017-Oct-31 12:00N 34°21' E 134°60'5 9.4
2017-Oct-31 11:30N 34°25' E 135°03'5 9.0
2017-Oct-31 11:00N 34°28' E 135°07'4 8.8
2017-Oct-31 10:30N 34°31' E 135°12'4 8.8
2017-Oct-31 10:00N 34°34' E 135°15'5 9.2
2017-Oct-31 09:30N 34°38' E 135°18'4 7.5
2017-Oct-31 09:00N 34°41' E 135°17'0 0.5
2017-Oct-31 08:28N 34°42' E 135°17'0 0.0
2017-Oct-31 07:58N 34°42' E 135°17'0 0.0
2017-Oct-31 07:22N 34°42' E 135°17'0 0.0
2017-Oct-31 06:58N 34°42' E 135°17'0 0.0
2017-Oct-31 06:28N 34°42' E 135°17'0 0.0
2017-Oct-31 05:58N 34°42' E 135°17'0 0.0
2017-Oct-31 05:28N 34°42' E 135°17'0 0.0
2017-Oct-31 04:58N 34°42' E 135°17'0 0.0
2017-Oct-31 04:28N 34°42' E 135°17'0 0.0
2017-Oct-31 03:58N 34°42' E 135°17'0 0.0
2017-Oct-31 03:16N 34°42' E 135°17'0 0.0
2017-Oct-31 02:52N 34°42' E 135°17'0 0.0
2017-Oct-31 02:22N 34°42' E 135°17'0 0.0
2017-Oct-31 01:58N 34°42' E 135°17'0 0.0
2017-Oct-31 01:22N 34°42' E 135°17'0 0.0
2017-Oct-31 00:58N 34°42' E 135°17'0 1.0
2017-Oct-31 00:29N 34°41' E 135°17'4 8.1
2017-Oct-31 00:00N 34°37' E 135°18'611.7
2017-Oct-30 23:30N 34°32' E 135°14'612.0
2017-Oct-30 23:00N 34°28' E 135°09'611.9
2017-Oct-30 22:30N 34°23' E 135°05'712.2
2017-Oct-30 21:58N 34°18' E 134°60'512.0
2017-Oct-30 21:30N 34°13' E 134°59'611.9
2017-Oct-30 21:00N 34°07' E 134°59'611.8
2017-Oct-30 20:30N 34°01' E 134°60'611.9
2017-Oct-30 20:00N 33°55' E 134°59'  
2017-Oct-28 01:12N 34°53' E 139°19'1110.9
2017-Oct-28 00:11N 34°59' E 139°30'211.6
2017-Oct-27 23:59N 35°01' E 139°32'612.4
2017-Oct-27 23:29N 35°04' E 139°39'612.4
2017-Oct-27 23:00N 35°08' E 139°44'612.0
2017-Oct-27 22:30N 35°14' E 139°46'611.5
2017-Oct-27 22:00N 35°19' E 139°43'510.6
2017-Oct-27 21:30N 35°24' E 139°43'4 7.9
2017-Oct-27 21:00N 35°28' E 139°42'0 0.2
2017-Oct-27 20:28N 35°28' E 139°43'0 0.0
2017-Oct-27 19:58N 35°28' E 139°43'0 0.0
2017-Oct-27 19:28N 35°28' E 139°43'0 0.0
2017-Oct-27 18:58N 35°28' E 139°43'0 0.0
2017-Oct-27 18:28N 35°28' E 139°43'0 0.0
2017-Oct-27 17:58N 35°28' E 139°43'0 0.0
2017-Oct-27 17:28N 35°28' E 139°43'0 0.0
2017-Oct-27 16:58N 35°28' E 139°43'0 0.0
2017-Oct-27 16:28N 35°28' E 139°43'0 0.0
2017-Oct-27 15:49N 35°28' E 139°43'0 0.0
2017-Oct-27 15:28N 35°28' E 139°43'0 0.0
2017-Oct-27 14:58N 35°28' E 139°43'0 0.0
2017-Oct-27 14:25N 35°28' E 139°43'0 0.0
2017-Oct-27 13:55N 35°28' E 139°43'0 0.0
2017-Oct-27 13:28N 35°28' E 139°43'0 0.0
2017-Oct-27 12:58N 35°28' E 139°43'0 0.0
2017-Oct-27 12:28N 35°28' E 139°43'0 0.0
2017-Oct-27 11:58N 35°28' E 139°43'0 0.0
2017-Oct-27 11:28N 35°28' E 139°43'0 0.0
2017-Oct-27 10:58N 35°28' E 139°43'0 0.0
2017-Oct-27 10:28N 35°28' E 139°43'0 0.0
2017-Oct-27 09:58N 35°28' E 139°43'0 0.0
2017-Oct-27 09:25N 35°28' E 139°43'0 0.0
2017-Oct-27 08:58N 35°28' E 139°43'0 0.0
2017-Oct-27 08:25N 35°28' E 139°43'0 0.0
2017-Oct-27 07:58N 35°28' E 139°43'0 0.0
2017-Oct-27 07:28N 35°28' E 139°43'0 0.0
2017-Oct-27 06:58N 35°28' E 139°43'0 0.0
2017-Oct-27 06:28N 35°28' E 139°43'0 0.0
2017-Oct-27 05:58N 35°28' E 139°43'0 0.0
2017-Oct-27 05:28N 35°28' E 139°43'0 0.0
2017-Oct-27 04:58N 35°28' E 139°43'0 0.0
2017-Oct-27 04:28N 35°28' E 139°43'0 0.0
2017-Oct-27 03:55N 35°28' E 139°43'0 0.0
2017-Oct-27 03:28N 35°28' E 139°43'0 0.0
2017-Oct-27 02:58N 35°28' E 139°43'0 0.0
2017-Oct-27 02:28N 35°28' E 139°43'0 0.0
2017-Oct-27 01:55N 35°28' E 139°43'0 0.0
2017-Oct-27 01:28N 35°28' E 139°43'0 0.0
2017-Oct-27 00:58N 35°28' E 139°43'0 0.0
2017-Oct-27 00:28N 35°28' E 139°43'0 0.0
2017-Oct-26 23:58N 35°28' E 139°43'0 0.0
2017-Oct-26 23:28N 35°28' E 139°43'0 0.0
2017-Oct-26 22:58N 35°28' E 139°43'0 0.0
2017-Oct-26 22:22N 35°28' E 139°43'0 0.0
2017-Oct-26 21:58N 35°28' E 139°43'0 0.0
2017-Oct-26 21:25N 35°28' E 139°43'0 0.0
2017-Oct-26 20:58N 35°28' E 139°43'0 0.0
2017-Oct-26 20:28N 35°28' E 139°43'0 0.0
2017-Oct-26 19:58N 35°28' E 139°43'0 0.0
2017-Oct-26 19:28N 35°28' E 139°43'0 0.0
2017-Oct-26 18:58N 35°28' E 139°43'0 0.0
2017-Oct-26 18:28N 35°28' E 139°43'0 0.0
2017-Oct-26 17:58N 35°28' E 139°43'0 0.0
2017-Oct-26 17:28N 35°28' E 139°43'0 0.0
2017-Oct-26 16:58N 35°28' E 139°43'0 0.0
2017-Oct-26 16:28N 35°28' E 139°43'0 0.0
2017-Oct-26 15:58N 35°28' E 139°43'0 0.0
2017-Oct-26 15:28N 35°28' E 139°43'0 0.0
2017-Oct-26 14:58N 35°28' E 139°43'0 0.0
2017-Oct-26 14:28N 35°28' E 139°43'0 0.0
2017-Oct-26 13:58N 35°28' E 139°43'0 0.0
2017-Oct-26 13:28N 35°28' E 139°43'0 0.0
2017-Oct-26 12:58N 35°28' E 139°43'0 0.0
2017-Oct-26 12:28N 35°28' E 139°43'0 0.0
2017-Oct-26 11:58N 35°28' E 139°43'0 0.0
2017-Oct-26 11:28N 35°28' E 139°43'0 0.0
2017-Oct-26 10:58N 35°28' E 139°43'0 0.0
2017-Oct-26 10:28N 35°28' E 139°43'0 0.0
2017-Oct-26 09:58N 35°28' E 139°43'0 0.0
2017-Oct-26 09:28N 35°28' E 139°43'0 0.0
2017-Oct-26 08:58N 35°28' E 139°43'0 0.0
2017-Oct-26 08:28N 35°28' E 139°43'0 0.0
2017-Oct-26 07:58N 35°28' E 139°43'0 0.0
2017-Oct-26 07:25N 35°28' E 139°43'0 0.0
2017-Oct-26 06:58N 35°28' E 139°43'0 0.0
2017-Oct-26 06:28N 35°28' E 139°43'0 0.0
2017-Oct-26 05:58N 35°28' E 139°43'0 0.0
2017-Oct-26 05:28N 35°28' E 139°43'0 0.0
2017-Oct-26 04:58N 35°28' E 139°43'0 0.0
2017-Oct-26 04:25N 35°28' E 139°43'0 0.0
2017-Oct-26 03:55N 35°28' E 139°43'0 0.0
2017-Oct-26 03:28N 35°28' E 139°43'0 0.0
2017-Oct-26 02:58N 35°28' E 139°43'0 0.0
2017-Oct-26 02:28N 35°28' E 139°43'0 0.0
2017-Oct-26 01:58N 35°28' E 139°43'0 0.0
2017-Oct-26 01:28N 35°28' E 139°43'0 0.0
2017-Oct-26 00:58N 35°28' E 139°43'0 0.0
2017-Oct-26 00:28N 35°28' E 139°43'0 0.0
2017-Oct-25 23:58N 35°28' E 139°43'0 0.0
2017-Oct-25 23:25N 35°28' E 139°43'0 0.0
2017-Oct-25 22:58N 35°28' E 139°43'0 0.0
2017-Oct-25 22:28N 35°28' E 139°43'0 0.0
2017-Oct-25 21:58N 35°28' E 139°43'0 0.0
2017-Oct-25 21:28N 35°28' E 139°43'0 0.0
2017-Oct-25 20:58N 35°28' E 139°43'0 0.0
2017-Oct-25 20:28N 35°28' E 139°43'0 0.0
2017-Oct-25 19:58N 35°28' E 139°43'0 0.0
2017-Oct-25 19:28N 35°28' E 139°43'0 0.0
2017-Oct-25 18:58N 35°28' E 139°43'0 0.0
2017-Oct-25 18:28N 35°28' E 139°43'0 0.0
2017-Oct-25 17:58N 35°28' E 139°43'0 0.0
2017-Oct-25 17:28N 35°28' E 139°43'0 0.0
2017-Oct-25 16:58N 35°28' E 139°43'0 0.0
2017-Oct-25 16:28N 35°28' E 139°43'0 0.0
2017-Oct-25 15:58N 35°28' E 139°43'0 0.0
2017-Oct-25 15:28N 35°28' E 139°43'0 0.0
2017-Oct-25 14:58N 35°28' E 139°43'0 0.0
2017-Oct-25 14:28N 35°28' E 139°43'0 0.0
2017-Oct-25 13:58N 35°28' E 139°43'0 0.0
2017-Oct-25 13:28N 35°28' E 139°43'0 0.0
2017-Oct-25 12:58N 35°28' E 139°43'0 0.0
2017-Oct-25 12:28N 35°28' E 139°43'0 0.0
2017-Oct-25 11:58N 35°28' E 139°43'0 0.0
2017-Oct-25 11:28N 35°28' E 139°43'0 0.0
2017-Oct-25 10:58N 35°28' E 139°43'0 0.0
2017-Oct-25 10:28N 35°28' E 139°43'0 0.0
2017-Oct-25 09:55N 35°28' E 139°43'0 0.0
2017-Oct-25 09:28N 35°28' E 139°43'0 0.0
2017-Oct-25 08:58N 35°28' E 139°43'0 0.0
2017-Oct-25 08:28N 35°28' E 139°43'0 0.0
2017-Oct-25 07:58N 35°28' E 139°43'0 0.0
2017-Oct-25 07:28N 35°28' E 139°43'0 0.0
2017-Oct-25 06:58N 35°28' E 139°43'0 0.0
2017-Oct-25 06:28N 35°28' E 139°43'0 0.0
2017-Oct-25 05:55N 35°28' E 139°43'0 0.0
2017-Oct-25 05:28N 35°28' E 139°43'0 0.0
2017-Oct-25 04:55N 35°28' E 139°43'0 0.0
2017-Oct-25 04:28N 35°28' E 139°43'0 0.0
2017-Oct-25 03:58N 35°28' E 139°43'0 0.0
2017-Oct-25 03:28N 35°28' E 139°43'0 0.0
2017-Oct-25 02:55N 35°28' E 139°43'0 0.0
2017-Oct-25 02:28N 35°28' E 139°43'0 0.0
2017-Oct-25 01:58N 35°28' E 139°43'0 0.0
2017-Oct-25 01:28N 35°28' E 139°43'0 0.0
2017-Oct-25 00:58N 35°28' E 139°43'0 0.0
2017-Oct-25 00:28N 35°28' E 139°43'0 0.0
2017-Oct-24 23:58N 35°28' E 139°43'0 0.0
2017-Oct-24 23:25N 35°28' E 139°43'0 0.0
2017-Oct-24 22:55N 35°28' E 139°43'0 0.0
2017-Oct-24 22:28N 35°28' E 139°43'0 0.0
2017-Oct-24 21:58N 35°28' E 139°43'0 0.0
2017-Oct-24 21:28N 35°28' E 139°43'0 0.0
2017-Oct-24 20:58N 35°28' E 139°43'0 0.0
2017-Oct-24 20:28N 35°28' E 139°43'0 0.0
2017-Oct-24 19:58N 35°28' E 139°43'0 0.0
2017-Oct-24 19:28N 35°28' E 139°43'0 0.0
2017-Oct-24 18:58N 35°28' E 139°43'0 0.0
2017-Oct-24 18:28N 35°28' E 139°43'0 0.0
2017-Oct-24 17:58N 35°28' E 139°43'0 0.0
2017-Oct-24 17:28N 35°28' E 139°43'0 0.0
2017-Oct-24 16:55N 35°28' E 139°43'0 0.0
2017-Oct-24 16:28N 35°28' E 139°43'0 0.0
2017-Oct-24 15:58N 35°28' E 139°43'0 0.0
2017-Oct-24 15:28N 35°28' E 139°43'0 0.0
2017-Oct-24 14:58N 35°28' E 139°43'0 0.0
2017-Oct-24 14:28N 35°28' E 139°43'0 0.0
2017-Oct-24 13:58N 35°28' E 139°43'0 0.0
2017-Oct-24 13:25N 35°28' E 139°43'0 0.0
2017-Oct-24 12:58N 35°28' E 139°43'0 0.0
2017-Oct-24 12:28N 35°28' E 139°43'0 0.0
2017-Oct-24 11:58N 35°28' E 139°43'0 0.0
2017-Oct-24 11:28N 35°28' E 139°43'0 0.0
2017-Oct-24 10:58N 35°28' E 139°43'0 0.0
2017-Oct-24 10:28N 35°28' E 139°43'0 0.0
2017-Oct-24 09:58N 35°28' E 139°43'0 0.0
2017-Oct-24 09:28N 35°28' E 139°43'0 0.0
2017-Oct-24 08:58N 35°28' E 139°43'0 0.0
2017-Oct-24 08:28N 35°28' E 139°43'0 0.0
2017-Oct-24 07:58N 35°28' E 139°43'0 0.0
2017-Oct-24 07:28N 35°28' E 139°43'0 0.0
2017-Oct-24 06:58N 35°28' E 139°43'0 0.0
2017-Oct-24 06:28N 35°28' E 139°43'0 0.0
2017-Oct-24 05:58N 35°28' E 139°43'0 0.0
2017-Oct-24 05:28N 35°28' E 139°43'0 0.0
2017-Oct-24 04:58N 35°28' E 139°43'0 0.0
2017-Oct-24 04:28N 35°28' E 139°43'0 0.0
2017-Oct-24 03:58N 35°28' E 139°43'0 0.0
2017-Oct-24 03:28N 35°28' E 139°43'0 0.0
2017-Oct-24 02:58N 35°28' E 139°43'0 0.0
2017-Oct-24 02:28N 35°28' E 139°43'0 0.0
2017-Oct-24 01:58N 35°28' E 139°43'0 0.0
2017-Oct-24 01:28N 35°28' E 139°43'0 0.0
2017-Oct-24 00:58N 35°28' E 139°43'0 0.0
2017-Oct-24 00:28N 35°28' E 139°43'0 0.0
2017-Oct-23 23:58N 35°28' E 139°43'0 0.0
2017-Oct-23 23:30N 35°28' E 139°43'2 3.0
2017-Oct-23 23:00N 35°27' E 139°44'0 0.2
2017-Oct-23 22:28N 35°27' E 139°44'0 0.0
2017-Oct-23 21:58N 35°27' E 139°44'0 0.0
2017-Oct-23 21:28N 35°27' E 139°44'0 0.1
2017-Oct-23 20:58N 35°27' E 139°44'0 0.0
2017-Oct-23 20:28N 35°27' E 139°44'0 0.0
2017-Oct-23 19:58N 35°27' E 139°44'0 0.1
2017-Oct-23 19:28N 35°27' E 139°44'0 0.0
2017-Oct-23 18:58N 35°27' E 139°44'0 0.0
2017-Oct-23 18:28N 35°27' E 139°44'0 0.0
2017-Oct-23 17:58N 35°27' E 139°44'0 0.0
2017-Oct-23 17:28N 35°27' E 139°44'0 0.0
2017-Oct-23 16:58N 35°27' E 139°44'0 0.0
2017-Oct-23 16:28N 35°27' E 139°44'0 0.1
2017-Oct-23 15:58N 35°27' E 139°44'0 0.0
2017-Oct-23 15:28N 35°27' E 139°44'0 0.0
2017-Oct-23 14:58N 35°27' E 139°44'0 0.0
2017-Oct-23 14:28N 35°27' E 139°44'0 0.1
2017-Oct-23 13:58N 35°27' E 139°44'0 0.0
2017-Oct-23 13:28N 35°27' E 139°44'0 0.0
2017-Oct-23 12:58N 35°27' E 139°44'0 0.0
2017-Oct-23 12:28N 35°27' E 139°44'0 0.0
2017-Oct-23 11:58N 35°27' E 139°44'0 0.2
2017-Oct-23 11:25N 35°27' E 139°44'0 0.0
2017-Oct-23 10:58N 35°27' E 139°44'0 0.1
2017-Oct-23 10:28N 35°27' E 139°44'0 0.0
2017-Oct-23 09:58N 35°27' E 139°44'0 0.0
2017-Oct-23 09:28N 35°27' E 139°44'0 0.0
2017-Oct-23 08:58N 35°27' E 139°44'0 0.0
2017-Oct-23 08:30N 35°27' E 139°44'0 0.0
2017-Oct-23 08:00N 35°27' E 139°44'0 0.0
2017-Oct-23 07:30N 35°27' E 139°44'0 0.0
2017-Oct-23 07:01N 35°27' E 139°44'0 0.0
2017-Oct-23 06:30N 35°27' E 139°44'0 0.1
2017-Oct-23 06:00N 35°27' E 139°44'0 0.1
2017-Oct-23 05:30N 35°27' E 139°44'0 0.0
2017-Oct-23 05:00N 35°27' E 139°44'0 0.0
2017-Oct-23 04:30N 35°27' E 139°44'0 0.0
2017-Oct-23 04:00N 35°27' E 139°44'0 0.0
2017-Oct-23 03:30N 35°27' E 139°44'0 0.1
2017-Oct-23 03:00N 35°27' E 139°44'0 0.0
2017-Oct-23 02:30N 35°27' E 139°44'0 0.0
2017-Oct-23 02:00N 35°27' E 139°44'0 0.1
2017-Oct-23 01:30N 35°27' E 139°44'0 0.0
2017-Oct-23 01:01N 35°27' E 139°44'0 0.0
2017-Oct-23 00:30N 35°27' E 139°44'0 0.1
2017-Oct-23 00:01N 35°27' E 139°44'0 0.1
2017-Oct-22 23:30N 35°27' E 139°44'0 0.1
2017-Oct-22 23:00N 35°27' E 139°44'0 0.2
2017-Oct-22 22:29N 35°27' E 139°44'0 0.1
2017-Oct-22 22:00N 35°27' E 139°44'0 0.1
2017-Oct-22 21:30N 35°27' E 139°44'0 0.2
2017-Oct-22 21:00N 35°27' E 139°44'0 0.2
2017-Oct-22 20:30N 35°27' E 139°44'0 0.2
2017-Oct-22 20:00N 35°27' E 139°44'0 0.3
2017-Oct-22 19:30N 35°27' E 139°44'0 0.1
2017-Oct-22 19:01N 35°27' E 139°44'0 0.0
2017-Oct-22 18:30N 35°27' E 139°44'0 0.1
2017-Oct-22 18:01N 35°27' E 139°44'0 0.1
2017-Oct-22 17:30N 35°27' E 139°44'0 0.0
2017-Oct-22 17:00N 35°27' E 139°44'0 0.0
2017-Oct-22 16:30N 35°27' E 139°44'0 0.2
2017-Oct-22 16:00N 35°27' E 139°44'0 0.1
2017-Oct-22 15:30N 35°27' E 139°44'0 0.0
2017-Oct-22 15:00N 35°27' E 139°44'0 0.0
2017-Oct-22 14:31N 35°27' E 139°44'0 0.1
2017-Oct-22 14:00N 35°27' E 139°44'0 0.0
2017-Oct-22 13:31N 35°27' E 139°44'0 0.0
2017-Oct-22 13:00N 35°27' E 139°44'0 0.0
2017-Oct-22 12:30N 35°27' E 139°44'0 0.0
2017-Oct-22 12:00N 35°27' E 139°44'0 0.0
2017-Oct-22 11:30N 35°27' E 139°44'0 0.1
2017-Oct-22 11:00N 35°27' E 139°44'0 0.1
2017-Oct-22 10:30N 35°27' E 139°44'0 0.1
2017-Oct-22 10:00N 35°27' E 139°44'0 0.0
2017-Oct-22 09:30N 35°27' E 139°44'0 0.1
2017-Oct-22 09:00N 35°27' E 139°44'0 0.0
2017-Oct-22 08:30N 35°27' E 139°44'0 0.2
2017-Oct-22 08:00N 35°27' E 139°44'2 3.1
2017-Oct-22 07:30N 35°26' E 139°43'0 0.3
2017-Oct-22 06:58N 35°26' E 139°43'0 1.0
2017-Oct-22 06:30N 35°26' E 139°43'0 0.3
2017-Oct-22 06:00N 35°26' E 139°43'0 0.2
2017-Oct-22 05:30N 35°26' E 139°43'1 1.8
2017-Oct-22 05:00N 35°27' E 139°43'1 2.7
2017-Oct-22 04:28N 35°28' E 139°43'0 0.0
2017-Oct-22 03:58N 35°28' E 139°43'0 0.0
2017-Oct-22 03:28N 35°28' E 139°43'0 0.0
2017-Oct-22 02:58N 35°28' E 139°43'0 0.0
2017-Oct-22 02:28N 35°28' E 139°43'0 0.0
2017-Oct-22 01:58N 35°28' E 139°43'0 0.0
2017-Oct-22 01:28N 35°28' E 139°43'0 0.0
2017-Oct-22 00:58N 35°28' E 139°43'0 0.0
2017-Oct-22 00:25N 35°28' E 139°43'0 0.0
2017-Oct-21 23:58N 35°28' E 139°43'0 0.0
2017-Oct-21 23:28N 35°28' E 139°43'0 0.0
2017-Oct-21 22:58N 35°28' E 139°43'0 0.0
2017-Oct-21 22:28N 35°28' E 139°43'0 0.0
2017-Oct-21 21:58N 35°28' E 139°43'0 0.0
2017-Oct-21 21:28N 35°28' E 139°43'0 0.0
2017-Oct-21 20:58N 35°28' E 139°43'0 0.0
2017-Oct-21 20:25N 35°28' E 139°43'0 0.0
2017-Oct-21 19:58N 35°28' E 139°43'0 0.0
2017-Oct-21 19:28N 35°28' E 139°43'0 0.0
2017-Oct-21 18:58N 35°28' E 139°43'0 0.0
2017-Oct-21 18:28N 35°28' E 139°43'0 0.0
2017-Oct-21 17:58N 35°28' E 139°43'0 0.0
2017-Oct-21 17:28N 35°28' E 139°43'0 0.0
2017-Oct-21 16:58N 35°28' E 139°43'0 0.0
2017-Oct-21 16:28N 35°28' E 139°43'0 0.0
2017-Oct-21 15:58N 35°28' E 139°43'0 0.0
2017-Oct-21 15:28N 35°28' E 139°43'0 0.0
2017-Oct-21 14:58N 35°28' E 139°43'0 0.0
2017-Oct-21 13:58N 35°28' E 139°43'0 0.0
2017-Oct-21 13:28N 35°28' E 139°43'  

Dump ship's entire track history